Mab Eol II — FGA6050 — position and weather

sailwx.info

Track history (hours):
 
Tides and Currents Weather Stations Pressure Air Temp Water Temp Dewpoint Dewpoint Depression Visibility Wind Speed Wind Dir Waves Ship Positions

Mab Eol II

Last reported at 2017-Nov-18 14:59 UTC. Time now 2017-Nov-19 12:21 UTC.
Position N 47°44' W 003°22'.

Length 12 m; draft 7.7 m.

Type: Fishing. MMSI: 227316520.

Date/timePositionNaut miles runAvg speedWind from/ knotsBaromVisibWave heightAir tempDewpointWater temp
2017-Nov-18 14:59N 47°44' W 003°22'0 0.2
2017-Nov-18 14:30N 47°44' W 003°22'5 9.0
2017-Nov-18 14:00N 47°39' W 003°22'4 8.9
2017-Nov-18 13:30N 47°35' W 003°22'9 0.9
2017-Nov-18 04:10N 47°26' W 003°21'1 8.9
2017-Nov-18 04:00N 47°28' W 003°22'4 9.0
2017-Nov-18 03:30N 47°32' W 003°22'4 9.0
2017-Nov-18 03:00N 47°37' W 003°22'4 9.0
2017-Nov-18 02:30N 47°41' W 003°22'3 5.2
2017-Nov-18 01:59N 47°44' W 003°22'0 0.0
2017-Nov-17 15:28N 47°44' W 003°22'0 0.1
2017-Nov-17 15:00N 47°44' W 003°22'3 5.8
2017-Nov-17 14:30N 47°41' W 003°22'4 8.7
2017-Nov-17 14:00N 47°37' W 003°21'4 8.7
2017-Nov-17 13:30N 47°33' W 003°19'4 8.6
2017-Nov-17 13:00N 47°28' W 003°18'3 0.4
2017-Nov-17 04:07N 47°25' W 003°17'1 9.3
2017-Nov-17 03:58N 47°26' W 003°18'4 9.2
2017-Nov-17 03:30N 47°31' W 003°19'5 9.2
2017-Nov-17 03:00N 47°35' W 003°21'5 9.0
2017-Nov-17 02:30N 47°40' W 003°22'4 8.2
2017-Nov-17 02:00N 47°44' W 003°22'0 0.0
2017-Nov-16 15:08N 47°44' W 003°22'0 0.2
2017-Nov-16 14:58N 47°44' W 003°22'2 4.6
2017-Nov-16 14:30N 47°42' W 003°22'4 8.6
2017-Nov-16 14:00N 47°37' W 003°21'4 8.6
2017-Nov-16 13:30N 47°33' W 003°20'4 8.5
2017-Nov-16 13:00N 47°29' W 003°18'4 0.5
2017-Nov-16 04:14N 47°25' W 003°17'2 9.0
2017-Nov-16 03:59N 47°27' W 003°18'4 9.0
2017-Nov-16 03:30N 47°31' W 003°19'4 9.1
2017-Nov-16 03:00N 47°36' W 003°21'4 8.9
2017-Nov-16 02:30N 47°40' W 003°22'4 7.8
2017-Nov-16 02:00N 47°44' W 003°22'0 0.0
2017-Nov-15 15:05N 47°44' W 003°22'0 0.0
2017-Nov-15 15:00N 47°44' W 003°22'1 1.8
2017-Nov-15 14:30N 47°43' W 003°22'4 8.6
2017-Nov-15 14:00N 47°39' W 003°23'4 8.6
2017-Nov-15 13:30N 47°34' W 003°23'4 8.9
2017-Nov-15 13:00N 47°30' W 003°23'4 0.4
2017-Nov-15 04:02N 47°26' W 003°23'1 9.0
2017-Nov-15 03:58N 47°27' W 003°23'4 9.0
2017-Nov-15 03:30N 47°31' W 003°23'4 9.1
2017-Nov-15 03:00N 47°35' W 003°23'5 9.1
2017-Nov-15 02:30N 47°40' W 003°22'4 6.8
2017-Nov-15 01:57N 47°44' W 003°22'0 0.0
2017-Nov-14 17:11N 47°44' W 003°22'0 0.0
2017-Nov-14 16:59N 47°44' W 003°22'0 0.0
2017-Nov-14 16:29N 47°44' W 003°22'0 0.0
2017-Nov-14 15:59N 47°44' W 003°22'0 0.0
2017-Nov-14 15:29N 47°44' W 003°22'0 0.0
2017-Nov-14 14:59N 47°44' W 003°22'0 0.0
2017-Nov-14 14:29N 47°44' W 003°22'0 0.3
2017-Nov-14 14:00N 47°44' W 003°22'4 8.9
2017-Nov-14 13:30N 47°39' W 003°22'4 9.0
2017-Nov-14 13:00N 47°35' W 003°23'4 9.0
2017-Nov-14 12:30N 47°30' W 003°24'2 0.2
2017-Nov-14 03:43N 47°29' W 003°25'2 9.6
2017-Nov-14 03:30N 47°31' W 003°24'5 9.5
2017-Nov-14 03:00N 47°35' W 003°23'5 9.5
2017-Nov-14 02:30N 47°40' W 003°22'4 7.2
2017-Nov-14 01:59N 47°44' W 003°22'3 0.1
2017-Nov-13 02:00N 47°40' W 003°22'3 6.6
2017-Nov-13 01:30N 47°44' W 003°22'0 0.0
2017-Nov-12 11:20N 47°44' W 003°22'0 0.0
2017-Nov-11 12:41N 47°44' W 003°22'0 0.3
2017-Nov-11 12:29N 47°44' W 003°22'3 7.1
2017-Nov-11 12:00N 47°40' W 003°22'4 7.9
2017-Nov-11 11:30N 47°36' W 003°23'4 7.7
2017-Nov-11 11:00N 47°33' W 003°23'7 2.6
2017-Nov-11 08:22N 47°26' W 003°23'1 1.1
2017-Nov-11 07:06N 47°25' W 003°25'0 1.6
2017-Nov-11 07:00N 47°25' W 003°25'1 0.9
2017-Nov-11 05:48N 47°26' W 003°26'2 1.2
2017-Nov-11 04:00N 47°28' W 003°24'4 8.6
2017-Nov-11 03:30N 47°32' W 003°23'4 8.3
2017-Nov-11 03:00N 47°36' W 003°23'4 8.5
2017-Nov-11 02:30N 47°40' W 003°22'3 6.6
2017-Nov-11 01:59N 47°44' W 003°22'0 0.0
2017-Nov-10 15:29N 47°44' W 003°22'0 0.1
2017-Nov-10 15:00N 47°44' W 003°22'0 0.0
2017-Nov-10 14:30N 47°44' W 003°22'2 4.0
2017-Nov-10 14:00N 47°42' W 003°22'4 8.5
2017-Nov-10 13:30N 47°38' W 003°22'4 8.3
2017-Nov-10 13:00N 47°33' W 003°21'4 8.2
2017-Nov-10 12:30N 47°29' W 003°20'4 0.5
2017-Nov-10 03:48N 47°25' W 003°19'3 8.7
2017-Nov-10 03:29N 47°28' W 003°20'4 8.6
2017-Nov-10 03:00N 47°32' W 003°20'4 8.9
2017-Nov-10 02:30N 47°36' W 003°21'5 9.1
2017-Nov-10 02:00N 47°41' W 003°22'3 5.8
2017-Nov-10 01:30N 47°44' W 003°22'0 0.0
2017-Nov-09 17:18N 47°44' W 003°22'0 0.0
2017-Nov-09 17:00N 47°44' W 003°22'0 0.0
2017-Nov-09 16:30N 47°44' W 003°22'0 0.0
2017-Nov-09 16:00N 47°44' W 003°22'0 0.0
2017-Nov-09 15:31N 47°44' W 003°22'0 0.0
2017-Nov-09 15:00N 47°44' W 003°22'0 0.0
2017-Nov-09 14:30N 47°44' W 003°22'0 0.0
2017-Nov-09 13:57N 47°44' W 003°22'0 0.0
2017-Nov-09 13:30N 47°44' W 003°22'0 0.2
2017-Nov-09 12:32N 47°44' W 003°22'0 0.0
2017-Nov-09 12:30N 47°44' W 003°22'0 0.0
2017-Nov-09 10:52N 47°44' W 003°22'0 0.0
2017-Nov-09 10:28N 47°44' W 003°22'0 0.0
2017-Nov-09 09:58N 47°44' W 003°22'0 0.0
2017-Nov-09 09:28N 47°44' W 003°22'0 0.0
2017-Nov-09 08:58N 47°44' W 003°22'0 0.0
2017-Nov-09 08:28N 47°44' W 003°22'0 0.0
2017-Nov-09 07:58N 47°44' W 003°22'0 0.0
2017-Nov-08 16:24N 47°44' W 003°22'0 0.0
2017-Nov-08 16:00N 47°44' W 003°22'0 0.0
2017-Nov-08 15:30N 47°44' W 003°22'0 0.0
2017-Nov-08 15:00N 47°44' W 003°22'  
Track history (hours):
 
Tides and Currents Weather Stations Pressure Air Temp Water Temp Dewpoint Dewpoint Depression Visibility Wind Speed Wind Dir Waves Ship Positions

Mab Eol II

Last reported at 2017-Nov-18 14:59 UTC. Time now 2017-Nov-19 12:21 UTC.
Position N 47°44' W 003°22'.

Length 12 m; draft 7.7 m.

Type: Fishing. MMSI: 227316520.

Date/timePositionNaut miles runAvg speedWind from/ knotsBaromVisibWave heightAir tempDewpointWater temp
2017-Nov-18 14:59N 47°44' W 003°22'0 0.2
2017-Nov-18 14:30N 47°44' W 003°22'5 9.0
2017-Nov-18 14:00N 47°39' W 003°22'4 8.9
2017-Nov-18 13:30N 47°35' W 003°22'9 0.9
2017-Nov-18 04:10N 47°26' W 003°21'1 8.9
2017-Nov-18 04:00N 47°28' W 003°22'4 9.0
2017-Nov-18 03:30N 47°32' W 003°22'4 9.0
2017-Nov-18 03:00N 47°37' W 003°22'4 9.0
2017-Nov-18 02:30N 47°41' W 003°22'3 5.2
2017-Nov-18 01:59N 47°44' W 003°22'0 0.0
2017-Nov-17 15:28N 47°44' W 003°22'0 0.1
2017-Nov-17 15:00N 47°44' W 003°22'3 5.8
2017-Nov-17 14:30N 47°41' W 003°22'4 8.7
2017-Nov-17 14:00N 47°37' W 003°21'4 8.7
2017-Nov-17 13:30N 47°33' W 003°19'4 8.6
2017-Nov-17 13:00N 47°28' W 003°18'3 0.4
2017-Nov-17 04:07N 47°25' W 003°17'1 9.3
2017-Nov-17 03:58N 47°26' W 003°18'4 9.2
2017-Nov-17 03:30N 47°31' W 003°19'5 9.2
2017-Nov-17 03:00N 47°35' W 003°21'5 9.0
2017-Nov-17 02:30N 47°40' W 003°22'4 8.2
2017-Nov-17 02:00N 47°44' W 003°22'0 0.0
2017-Nov-16 15:08N 47°44' W 003°22'0 0.2
2017-Nov-16 14:58N 47°44' W 003°22'2 4.6
2017-Nov-16 14:30N 47°42' W 003°22'4 8.6
2017-Nov-16 14:00N 47°37' W 003°21'4 8.6
2017-Nov-16 13:30N 47°33' W 003°20'4 8.5
2017-Nov-16 13:00N 47°29' W 003°18'4 0.5
2017-Nov-16 04:14N 47°25' W 003°17'2 9.0
2017-Nov-16 03:59N 47°27' W 003°18'4 9.0
2017-Nov-16 03:30N 47°31' W 003°19'4 9.1
2017-Nov-16 03:00N 47°36' W 003°21'4 8.9
2017-Nov-16 02:30N 47°40' W 003°22'4 7.8
2017-Nov-16 02:00N 47°44' W 003°22'0 0.0
2017-Nov-15 15:05N 47°44' W 003°22'0 0.0
2017-Nov-15 15:00N 47°44' W 003°22'1 1.8
2017-Nov-15 14:30N 47°43' W 003°22'4 8.6
2017-Nov-15 14:00N 47°39' W 003°23'4 8.6
2017-Nov-15 13:30N 47°34' W 003°23'4 8.9
2017-Nov-15 13:00N 47°30' W 003°23'4 0.4
2017-Nov-15 04:02N 47°26' W 003°23'1 9.0
2017-Nov-15 03:58N 47°27' W 003°23'4 9.0
2017-Nov-15 03:30N 47°31' W 003°23'4 9.1
2017-Nov-15 03:00N 47°35' W 003°23'5 9.1
2017-Nov-15 02:30N 47°40' W 003°22'4 6.8
2017-Nov-15 01:57N 47°44' W 003°22'0 0.0
2017-Nov-14 17:11N 47°44' W 003°22'0 0.0
2017-Nov-14 16:59N 47°44' W 003°22'0 0.0
2017-Nov-14 16:29N 47°44' W 003°22'0 0.0
2017-Nov-14 15:59N 47°44' W 003°22'0 0.0
2017-Nov-14 15:29N 47°44' W 003°22'0 0.0
2017-Nov-14 14:59N 47°44' W 003°22'0 0.0
2017-Nov-14 14:29N 47°44' W 003°22'0 0.3
2017-Nov-14 14:00N 47°44' W 003°22'4 8.9
2017-Nov-14 13:30N 47°39' W 003°22'4 9.0
2017-Nov-14 13:00N 47°35' W 003°23'4 9.0
2017-Nov-14 12:30N 47°30' W 003°24'2 0.2
2017-Nov-14 03:43N 47°29' W 003°25'2 9.6
2017-Nov-14 03:30N 47°31' W 003°24'5 9.5
2017-Nov-14 03:00N 47°35' W 003°23'5 9.5
2017-Nov-14 02:30N 47°40' W 003°22'4 7.2
2017-Nov-14 01:59N 47°44' W 003°22'3 0.1
2017-Nov-13 02:00N 47°40' W 003°22'3 6.6
2017-Nov-13 01:30N 47°44' W 003°22'0 0.0
2017-Nov-12 11:20N 47°44' W 003°22'0 0.0
2017-Nov-11 12:41N 47°44' W 003°22'0 0.3
2017-Nov-11 12:29N 47°44' W 003°22'3 7.1
2017-Nov-11 12:00N 47°40' W 003°22'4 7.9
2017-Nov-11 11:30N 47°36' W 003°23'4 7.7
2017-Nov-11 11:00N 47°33' W 003°23'7 2.6
2017-Nov-11 08:22N 47°26' W 003°23'1 1.1
2017-Nov-11 07:06N 47°25' W 003°25'0 1.6
2017-Nov-11 07:00N 47°25' W 003°25'1 0.9
2017-Nov-11 05:48N 47°26' W 003°26'2 1.2
2017-Nov-11 04:00N 47°28' W 003°24'4 8.6
2017-Nov-11 03:30N 47°32' W 003°23'4 8.3
2017-Nov-11 03:00N 47°36' W 003°23'4 8.5
2017-Nov-11 02:30N 47°40' W 003°22'3 6.6
2017-Nov-11 01:59N 47°44' W 003°22'0 0.0
2017-Nov-10 15:29N 47°44' W 003°22'0 0.1
2017-Nov-10 15:00N 47°44' W 003°22'0 0.0
2017-Nov-10 14:30N 47°44' W 003°22'2 4.0
2017-Nov-10 14:00N 47°42' W 003°22'4 8.5
2017-Nov-10 13:30N 47°38' W 003°22'4 8.3
2017-Nov-10 13:00N 47°33' W 003°21'4 8.2
2017-Nov-10 12:30N 47°29' W 003°20'4 0.5
2017-Nov-10 03:48N 47°25' W 003°19'3 8.7
2017-Nov-10 03:29N 47°28' W 003°20'4 8.6
2017-Nov-10 03:00N 47°32' W 003°20'4 8.9
2017-Nov-10 02:30N 47°36' W 003°21'5 9.1
2017-Nov-10 02:00N 47°41' W 003°22'3 5.8
2017-Nov-10 01:30N 47°44' W 003°22'0 0.0
2017-Nov-09 17:18N 47°44' W 003°22'0 0.0
2017-Nov-09 17:00N 47°44' W 003°22'0 0.0
2017-Nov-09 16:30N 47°44' W 003°22'0 0.0
2017-Nov-09 16:00N 47°44' W 003°22'0 0.0
2017-Nov-09 15:31N 47°44' W 003°22'0 0.0
2017-Nov-09 15:00N 47°44' W 003°22'0 0.0
2017-Nov-09 14:30N 47°44' W 003°22'0 0.0
2017-Nov-09 13:57N 47°44' W 003°22'0 0.0
2017-Nov-09 13:30N 47°44' W 003°22'0 0.2
2017-Nov-09 12:32N 47°44' W 003°22'0 0.0
2017-Nov-09 12:30N 47°44' W 003°22'0 0.0
2017-Nov-09 10:52N 47°44' W 003°22'0 0.0
2017-Nov-09 10:28N 47°44' W 003°22'0 0.0
2017-Nov-09 09:58N 47°44' W 003°22'0 0.0
2017-Nov-09 09:28N 47°44' W 003°22'0 0.0
2017-Nov-09 08:58N 47°44' W 003°22'0 0.0
2017-Nov-09 08:28N 47°44' W 003°22'0 0.0
2017-Nov-09 07:58N 47°44' W 003°22'0 0.0
2017-Nov-08 16:24N 47°44' W 003°22'0 0.0
2017-Nov-08 16:00N 47°44' W 003°22'0 0.0
2017-Nov-08 15:30N 47°44' W 003°22'0 0.0
2017-Nov-08 15:00N 47°44' W 003°22'  

Dump ship's entire track history